Terminal Aerodrome Forecast
Issued by NWS Louisville, KY

Home | Current Version | Previous Version | Text Only | Print | Product List | Glossary On
Versions: 1 2 3 4 5 6 7 8 9 10 11 12 13 14 15 16 17 18 19 20
000
FTUS43 KLMK 010100 AAA
TAFSDF
TAF AMD
KSDF 010151Z 0102/0206 20005KT P6SM BKN015 OVC020
     FM010600 18005KT 6SM BR BKN019
     FM011400 22014G18KT P6SM BKN040=

USA.gov is the U.S. government's official web portal to all federal, state and local government web resources and services.